createdAt,value
2023-03-24T00:01:45.741Z,8.20
2023-03-24T00:04:12.319Z,8.30
2023-03-24T00:06:39.004Z,8.40
2023-03-24T00:09:05.594Z,8.70
2023-03-24T00:11:35.419Z,8.60
2023-03-24T00:14:03.277Z,8.50
2023-03-24T00:16:33.928Z,8.50
2023-03-24T00:19:01.069Z,8.20
2023-03-24T00:21:27.668Z,8.10
2023-03-24T00:23:57.521Z,8.30
2023-03-24T00:26:25.787Z,8.40
2023-03-24T00:28:53.141Z,8.40
2023-03-24T00:31:19.834Z,8.30
2023-03-24T00:33:50.180Z,8.00
2023-03-24T00:36:20.304Z,8.00
2023-03-24T00:38:47.693Z,7.90
2023-03-24T00:41:17.097Z,8.00
2023-03-24T00:43:43.602Z,7.90
2023-03-24T00:46:26.564Z,7.80
2023-03-24T00:49:06.804Z,7.60
2023-03-24T00:51:40.617Z,7.60
2023-03-24T00:54:11.901Z,7.70
2023-03-24T00:56:39.594Z,7.60
2023-03-24T00:59:09.068Z,7.60
2023-03-24T01:01:36.887Z,7.60
2023-03-24T01:04:05.153Z,7.60
2023-03-24T01:06:31.647Z,7.60
2023-03-24T01:08:58.189Z,7.70
2023-03-24T01:11:26.161Z,7.80
2023-03-24T01:13:53.761Z,7.80
2023-03-24T01:16:24.802Z,7.80
2023-03-24T01:18:51.894Z,7.80
2023-03-24T01:21:18.401Z,7.90
2023-03-24T01:23:44.917Z,7.80
2023-03-24T01:26:11.480Z,7.80
2023-03-24T01:28:42.935Z,7.90
2023-03-24T01:31:10.882Z,7.90
2023-03-24T01:33:38.375Z,7.90
2023-03-24T01:36:07.211Z,7.80
2023-03-24T01:38:34.844Z,7.80
2023-03-24T01:41:02.556Z,7.70
2023-03-24T01:43:32.876Z,7.70
2023-03-24T01:46:21.618Z,7.60
2023-03-24T01:49:00.572Z,7.50
2023-03-24T01:51:43.290Z,7.50
2023-03-24T01:54:36.266Z,7.60
2023-03-24T01:57:12.662Z,7.50
2023-03-24T01:59:44.586Z,7.50
2023-03-24T02:02:13.073Z,7.40
2023-03-24T02:04:49.629Z,7.50
2023-03-24T02:07:33.255Z,7.50
2023-03-24T02:10:05.887Z,7.50
2023-03-24T02:12:32.902Z,7.50
2023-03-24T02:15:00.993Z,7.50
2023-03-24T02:18:12.723Z,7.40
2023-03-24T02:24:14.047Z,7.40
2023-03-24T02:27:56.423Z,7.40
2023-03-24T02:34:40.280Z,7.50
2023-03-24T02:40:30.223Z,8.00
2023-03-24T02:43:39.850Z,7.80
2023-03-24T02:46:37.537Z,7.80
2023-03-24T02:49:25.523Z,7.90
2023-03-24T02:52:21.843Z,7.80
2023-03-24T02:58:28.832Z,7.60
2023-03-24T03:01:05.333Z,7.40
2023-03-24T03:03:44.076Z,7.90
2023-03-24T03:06:30.537Z,7.80
2023-03-24T03:09:04.979Z,7.70
2023-03-24T03:11:31.933Z,7.70
2023-03-24T03:14:10.114Z,7.70
2023-03-24T03:16:52.722Z,7.90
2023-03-24T03:19:37.875Z,7.70
2023-03-24T03:22:13.206Z,7.60
2023-03-24T03:24:44.681Z,7.60
2023-03-24T03:27:20.105Z,7.60
2023-03-24T03:29:56.778Z,7.50
2023-03-24T03:32:40.464Z,7.40
2023-03-24T03:35:52.183Z,7.40
2023-03-24T03:38:47.081Z,7.40
2023-03-24T03:41:17.578Z,7.40
2023-03-24T03:43:46.809Z,7.30
2023-03-24T03:46:15.011Z,7.30
2023-03-24T03:48:43.186Z,7.30
2023-03-24T03:51:14.339Z,7.30
2023-03-24T03:53:58.576Z,7.30
2023-03-24T03:56:29.730Z,7.50
2023-03-24T03:58:57.491Z,7.90
2023-03-24T04:01:30.418Z,8.40
2023-03-24T04:05:09.332Z,8.40
2023-03-24T04:08:04.877Z,8.20
2023-03-24T04:11:25.588Z,8.10
2023-03-24T04:18:31.492Z,8.00
2023-03-24T04:24:15.882Z,8.00
2023-03-24T04:29:52.303Z,8.20
2023-03-24T04:32:45.819Z,7.80
2023-03-24T04:36:41.921Z,8.30
2023-03-24T04:39:19.033Z,8.20
2023-03-24T04:41:47.666Z,8.10
2023-03-24T04:44:16.919Z,8.10
2023-03-24T04:46:44.784Z,8.00
2023-03-24T04:49:11.297Z,7.90
2023-03-24T04:51:38.177Z,7.90
2023-03-24T04:54:04.787Z,7.90
2023-03-24T04:57:11.756Z,7.70
2023-03-24T04:59:38.271Z,7.90
2023-03-24T05:02:04.933Z,7.90
2023-03-24T05:04:31.674Z,7.90
2023-03-24T05:06:58.146Z,8.00
2023-03-24T05:09:25.050Z,8.00
2023-03-24T05:11:52.190Z,7.90
2023-03-24T05:14:19.020Z,8.00
2023-03-24T05:16:45.620Z,8.10
2023-03-24T05:19:12.219Z,8.10
2023-03-24T05:21:39.044Z,8.10
2023-03-24T05:24:06.092Z,8.20
2023-03-24T05:26:33.367Z,8.30
2023-03-24T05:29:00.231Z,8.30
2023-03-24T05:31:27.105Z,8.30
2023-03-24T05:33:53.671Z,8.30
2023-03-24T05:36:20.250Z,8.40
2023-03-24T05:38:46.754Z,8.60
2023-03-24T05:41:13.256Z,8.90
2023-03-24T05:43:39.766Z,9.10
2023-03-24T05:46:06.936Z,9.10
2023-03-24T05:48:33.448Z,9.10
2023-03-24T05:51:00.182Z,9.20
2023-03-24T05:53:26.666Z,9.30
2023-03-24T05:55:53.192Z,9.60
2023-03-24T05:58:20.775Z,9.80
2023-03-24T06:00:47.647Z,9.80
2023-03-24T06:03:16.517Z,9.90
2023-03-24T06:05:45.056Z,10.00
2023-03-24T06:08:12.398Z,10.10
2023-03-24T06:10:39.922Z,10.50
2023-03-24T06:13:08.268Z,10.70
2023-03-24T06:15:35.473Z,10.80
2023-03-24T06:18:04.417Z,10.90
2023-03-24T06:20:31.004Z,11.10
2023-03-24T06:22:58.978Z,11.20
2023-03-24T06:25:27.820Z,11.50
2023-03-24T06:27:54.296Z,11.80
2023-03-24T06:30:20.802Z,11.90
2023-03-24T06:32:47.344Z,12.10
2023-03-24T06:35:16.490Z,12.30
2023-03-24T06:37:43.956Z,12.40
2023-03-24T06:40:14.411Z,12.40
2023-03-24T06:42:41.136Z,12.40
2023-03-24T06:45:08.950Z,12.40
2023-03-24T06:47:35.809Z,12.40
2023-03-24T06:50:02.698Z,12.50
2023-03-24T06:52:29.180Z,12.50
2023-03-24T06:54:56.858Z,12.60
2023-03-24T06:57:23.367Z,12.80
2023-03-24T06:59:49.905Z,13.00
2023-03-24T07:02:16.787Z,13.40
2023-03-24T07:04:43.278Z,13.80
2023-03-24T07:07:30.862Z,14.30
2023-03-24T07:10:20.938Z,14.70
2023-03-24T07:12:47.816Z,15.00
2023-03-24T07:15:14.689Z,15.10
2023-03-24T07:17:42.246Z,15.30
2023-03-24T07:20:09.415Z,15.50
2023-03-24T07:22:38.821Z,15.70
2023-03-24T07:25:06.503Z,15.90
2023-03-24T07:27:34.110Z,16.00
2023-03-24T07:30:01.859Z,16.10
2023-03-24T07:32:33.929Z,16.10
2023-03-24T07:35:01.855Z,16.30
2023-03-24T07:37:28.445Z,16.40
2023-03-24T07:39:55.280Z,16.60
2023-03-24T07:42:21.766Z,16.80
2023-03-24T07:44:48.258Z,17.10
2023-03-24T07:47:14.775Z,17.20
2023-03-24T07:49:41.311Z,17.40
2023-03-24T07:52:07.860Z,17.50
2023-03-24T07:54:34.848Z,17.60
2023-03-24T07:57:01.830Z,17.60
2023-03-24T07:59:28.706Z,17.30
2023-03-24T08:01:58.406Z,17.10
2023-03-24T08:04:29.289Z,17.20
2023-03-24T08:06:56.484Z,17.20
2023-03-24T08:09:24.316Z,17.50
2023-03-24T08:11:51.234Z,17.70
2023-03-24T08:14:17.737Z,18.10
2023-03-24T08:16:45.614Z,18.20
2023-03-24T08:19:12.134Z,18.50
2023-03-24T08:21:38.615Z,18.70
2023-03-24T08:24:06.089Z,19.00
2023-03-24T08:26:34.501Z,19.00
2023-03-24T08:29:02.350Z,19.00
2023-03-24T08:31:34.356Z,19.10
2023-03-24T08:34:01.380Z,19.30
2023-03-24T08:36:27.908Z,19.30
2023-03-24T08:38:56.043Z,19.40
2023-03-24T08:41:33.881Z,19.50
2023-03-24T08:44:07.108Z,19.70
2023-03-24T08:46:34.407Z,19.90
2023-03-24T08:49:01.746Z,20.20
2023-03-24T08:51:28.332Z,20.40
2023-03-24T08:53:54.966Z,20.40
2023-03-24T08:56:22.258Z,20.40
2023-03-24T08:58:50.516Z,20.60
2023-03-24T09:01:17.868Z,20.50
2023-03-24T09:03:45.607Z,20.70
2023-03-24T09:06:13.431Z,20.70
2023-03-24T09:08:40.082Z,20.80
2023-03-24T09:11:12.988Z,20.90
2023-03-24T09:13:39.502Z,20.80
2023-03-24T09:16:06.339Z,20.90
2023-03-24T09:18:32.829Z,20.90
2023-03-24T09:20:59.430Z,21.00
2023-03-24T09:23:28.396Z,21.00
2023-03-24T09:25:55.063Z,20.90
2023-03-24T09:28:22.158Z,20.90
2023-03-24T09:30:49.411Z,20.90
2023-03-24T09:33:16.413Z,21.10
2023-03-24T09:35:43.049Z,21.30
2023-03-24T09:38:11.389Z,21.40
2023-03-24T09:40:41.893Z,21.50
2023-03-24T09:43:29.855Z,21.40
2023-03-24T09:46:01.361Z,21.20
2023-03-24T09:48:52.961Z,21.10
2023-03-24T09:51:28.495Z,21.30
2023-03-24T09:54:32.384Z,21.40
2023-03-24T09:56:59.454Z,21.50
2023-03-24T09:59:43.877Z,21.70
2023-03-24T10:02:19.816Z,21.90
2023-03-24T10:04:47.090Z,21.90
2023-03-24T10:07:37.723Z,21.80
2023-03-24T10:10:26.612Z,22.10
2023-03-24T10:13:03.249Z,22.20
2023-03-24T10:16:01.485Z,22.30
2023-03-24T10:18:43.130Z,22.40
2023-03-24T10:21:24.645Z,22.30
2023-03-24T10:25:17.724Z,22.30
2023-03-24T10:27:57.068Z,22.30
2023-03-24T10:30:36.393Z,22.30
2023-03-24T10:33:03.249Z,22.60
2023-03-24T10:35:40.772Z,22.90
2023-03-24T10:38:20.971Z,22.90
2023-03-24T10:40:49.371Z,22.90
2023-03-24T10:43:21.302Z,23.00
2023-03-24T10:45:52.829Z,23.00
2023-03-24T10:48:53.074Z,23.10
2023-03-24T10:51:31.011Z,23.40
2023-03-24T10:54:22.791Z,23.30
2023-03-24T10:57:06.518Z,23.30
2023-03-24T10:59:57.135Z,23.30
2023-03-24T11:02:29.172Z,23.20
2023-03-24T11:05:21.852Z,23.00
2023-03-24T11:07:52.991Z,22.70
2023-03-24T11:10:25.738Z,22.50
2023-03-24T11:13:27.985Z,22.40
2023-03-24T11:16:16.363Z,22.30
2023-03-24T11:19:28.099Z,22.20
2023-03-24T11:22:03.348Z,22.10
2023-03-24T11:24:30.376Z,22.00
2023-03-24T11:27:03.024Z,21.80
2023-03-24T11:29:37.875Z,21.60
2023-03-24T11:32:22.381Z,21.40
2023-03-24T11:35:07.237Z,21.20
2023-03-24T11:37:36.347Z,21.20
2023-03-24T11:40:21.451Z,21.10
2023-03-24T11:42:58.838Z,21.00
2023-03-24T11:45:45.163Z,20.80
2023-03-24T11:48:41.914Z,20.80
2023-03-24T11:51:11.879Z,20.70
2023-03-24T11:53:53.205Z,20.70
2023-03-24T11:56:45.237Z,20.80
2023-03-24T11:59:44.543Z,20.80
2023-03-24T12:04:17.871Z,20.80
2023-03-24T12:08:59.945Z,21.00
2023-03-24T12:17:40.062Z,21.20
2023-03-24T12:20:42.158Z,21.40
2023-03-24T12:23:35.935Z,21.50
2023-03-24T12:26:31.521Z,21.60
2023-03-24T12:29:44.644Z,21.70
2023-03-24T12:32:58.566Z,21.70
2023-03-24T12:35:48.938Z,21.60
2023-03-24T12:42:30.419Z,21.50
2023-03-24T12:47:26.192Z,21.50
2023-03-24T12:50:38.345Z,21.60
2023-03-24T12:55:37.058Z,21.80
2023-03-24T12:58:42.332Z,21.70
2023-03-24T13:02:24.629Z,21.70
2023-03-24T13:04:59.085Z,21.90
2023-03-24T13:07:28.158Z,21.80
2023-03-24T13:10:07.240Z,21.80
2023-03-24T13:12:54.641Z,21.70
2023-03-24T13:15:44.564Z,21.60
2023-03-24T13:18:59.191Z,21.60
2023-03-24T13:21:27.789Z,21.70
2023-03-24T13:24:14.803Z,21.70
2023-03-24T13:27:32.233Z,21.80
2023-03-24T13:32:41.195Z,21.70
2023-03-24T13:36:03.278Z,21.80
2023-03-24T13:38:43.233Z,21.70
2023-03-24T13:41:23.858Z,21.60
2023-03-24T13:44:00.230Z,21.70
2023-03-24T13:46:28.031Z,21.70
2023-03-24T13:49:00.008Z,21.60
2023-03-24T13:51:45.396Z,21.60
2023-03-24T13:54:26.408Z,21.60
2023-03-24T13:57:22.784Z,21.50
2023-03-24T14:00:21.157Z,21.40
2023-03-24T14:03:12.314Z,21.50
2023-03-24T14:06:03.865Z,21.40
2023-03-24T14:09:03.997Z,21.50
2023-03-24T14:12:10.636Z,21.40
2023-03-24T14:15:14.195Z,21.60
2023-03-24T14:17:44.366Z,21.50
2023-03-24T14:20:22.626Z,21.60
2023-03-24T14:22:50.935Z,21.40
2023-03-24T14:25:31.473Z,21.40
2023-03-24T14:28:31.092Z,21.40
2023-03-24T14:31:30.276Z,21.30
2023-03-24T14:34:13.207Z,21.30
2023-03-24T14:36:45.218Z,21.20
2023-03-24T14:39:35.807Z,21.10
2023-03-24T14:42:54.796Z,21.10
2023-03-24T14:48:00.846Z,21.00
2023-03-24T14:50:28.480Z,20.80
2023-03-24T14:53:01.449Z,20.80
2023-03-24T14:55:29.980Z,20.70
2023-03-24T14:58:26.214Z,20.70
2023-03-24T15:01:07.314Z,20.70
2023-03-24T15:04:06.909Z,20.80
2023-03-24T15:06:43.607Z,20.70
2023-03-24T15:09:10.606Z,20.80
2023-03-24T15:11:40.772Z,20.80
2023-03-24T15:14:35.067Z,20.90
2023-03-24T15:17:23.098Z,20.90
2023-03-24T15:19:54.369Z,21.00
2023-03-24T15:22:21.082Z,20.80
2023-03-24T15:24:50.496Z,20.70
2023-03-24T15:27:25.697Z,20.50
2023-03-24T15:29:59.413Z,20.30
2023-03-24T15:32:30.879Z,20.20
2023-03-24T15:35:08.041Z,20.30
2023-03-24T15:37:41.234Z,20.30
2023-03-24T15:40:36.908Z,20.20
2023-03-24T15:43:19.618Z,20.10
2023-03-24T15:46:04.762Z,20.00
2023-03-24T15:48:37.077Z,20.10
2023-03-24T15:51:10.665Z,20.10
2023-03-24T15:53:54.284Z,20.00
2023-03-24T15:56:31.364Z,19.90
2023-03-24T15:59:14.847Z,19.90
2023-03-24T16:01:44.837Z,19.90
2023-03-24T16:04:19.891Z,19.80
2023-03-24T16:06:54.160Z,19.90
2023-03-24T16:09:26.592Z,20.00
2023-03-24T16:11:53.421Z,19.90
2023-03-24T16:14:26.225Z,19.80
2023-03-24T16:16:55.805Z,19.70
2023-03-24T16:19:23.403Z,19.70
2023-03-24T16:21:50.185Z,19.80
2023-03-24T16:24:16.775Z,19.80
2023-03-24T16:26:43.650Z,19.80
2023-03-24T16:29:22.813Z,19.70
2023-03-24T16:31:54.686Z,19.70
2023-03-24T16:34:22.478Z,19.60
2023-03-24T16:36:52.598Z,19.50
2023-03-24T16:39:25.682Z,19.40
2023-03-24T16:41:53.039Z,19.50
2023-03-24T16:44:24.039Z,19.40
2023-03-24T16:46:53.012Z,19.30
2023-03-24T16:49:20.615Z,19.30
2023-03-24T16:51:47.410Z,19.30
2023-03-24T16:54:14.185Z,19.20
2023-03-24T16:56:41.507Z,19.10
2023-03-24T16:59:08.469Z,19.10
2023-03-24T17:01:38.525Z,19.10
2023-03-24T17:04:18.322Z,18.90
2023-03-24T17:06:49.938Z,18.70
2023-03-24T17:09:16.856Z,18.40
2023-03-24T17:11:48.307Z,18.20
2023-03-24T17:14:16.565Z,18.00
2023-03-24T17:16:46.030Z,17.90
2023-03-24T17:19:16.376Z,18.00
2023-03-24T17:22:02.519Z,17.80
2023-03-24T17:24:34.895Z,17.70
2023-03-24T17:27:02.525Z,17.50
2023-03-24T17:29:29.061Z,17.40
2023-03-24T17:31:55.554Z,17.20
2023-03-24T17:34:22.531Z,17.00
2023-03-24T17:36:50.031Z,16.90
2023-03-24T17:39:18.691Z,16.70
2023-03-24T17:41:45.421Z,16.40
2023-03-24T17:44:11.885Z,16.20
2023-03-24T17:46:38.459Z,16.00
2023-03-24T17:49:05.626Z,15.90
2023-03-24T17:51:32.304Z,15.90
2023-03-24T17:53:59.046Z,15.90
2023-03-24T17:56:25.567Z,15.90
2023-03-24T17:58:55.499Z,15.60
2023-03-24T18:01:22.844Z,15.40
2023-03-24T18:03:50.012Z,15.20
2023-03-24T18:06:16.708Z,15.00
2023-03-24T18:08:43.298Z,15.00
2023-03-24T18:11:13.733Z,14.90
2023-03-24T18:13:41.728Z,14.90
2023-03-24T18:16:19.946Z,14.70
2023-03-24T18:18:48.689Z,14.70
2023-03-24T18:21:15.520Z,14.50
2023-03-24T18:23:42.139Z,14.40
2023-03-24T18:26:09.066Z,14.10
2023-03-24T18:28:38.024Z,14.00
2023-03-24T18:31:15.030Z,13.90
2023-03-24T18:33:45.061Z,13.90
2023-03-24T18:36:15.770Z,14.10
2023-03-24T18:38:43.046Z,14.30
2023-03-24T18:41:12.100Z,14.20
2023-03-24T18:43:41.606Z,14.00
2023-03-24T18:46:09.523Z,13.90
2023-03-24T18:48:41.470Z,13.90
2023-03-24T18:51:08.765Z,13.80
2023-03-24T18:53:35.586Z,13.80
2023-03-24T18:56:04.720Z,13.90
2023-03-24T18:58:31.275Z,13.90
2023-03-24T19:01:08.230Z,14.00
2023-03-24T19:03:37.530Z,13.90
2023-03-24T19:06:06.324Z,13.90
2023-03-24T19:08:35.206Z,14.00
2023-03-24T19:11:01.757Z,14.00
2023-03-24T19:13:28.267Z,14.00
2023-03-24T19:15:54.782Z,14.00
2023-03-24T19:18:23.149Z,13.90
2023-03-24T19:20:55.171Z,13.90
2023-03-24T19:23:25.526Z,13.90
2023-03-24T19:25:55.488Z,13.90
2023-03-24T19:28:28.969Z,13.90
2023-03-24T19:30:56.996Z,14.00
2023-03-24T19:33:23.496Z,14.10
2023-03-24T19:35:50.929Z,14.40
2023-03-24T19:38:23.129Z,14.30
2023-03-24T19:40:53.318Z,14.00
2023-03-24T19:43:24.434Z,13.90
2023-03-24T19:45:55.230Z,13.90
2023-03-24T19:48:22.669Z,14.00
2023-03-24T19:50:51.968Z,14.20
2023-03-24T19:53:19.104Z,14.30
2023-03-24T19:55:46.116Z,14.40
2023-03-24T19:58:13.381Z,14.40
2023-03-24T20:00:40.050Z,14.50
2023-03-24T20:03:06.936Z,14.50
2023-03-24T20:05:35.328Z,14.40
2023-03-24T20:08:02.565Z,14.40
2023-03-24T20:10:29.319Z,14.40
2023-03-24T20:12:56.037Z,14.40
2023-03-24T20:15:22.986Z,14.60
2023-03-24T20:17:49.930Z,14.50
2023-03-24T20:20:16.414Z,14.40
2023-03-24T20:22:45.025Z,14.20
2023-03-24T20:25:14.901Z,14.20
2023-03-24T20:27:44.544Z,14.10
2023-03-24T20:30:16.948Z,14.10
2023-03-24T20:32:43.534Z,13.90
2023-03-24T20:35:10.806Z,13.70
2023-03-24T20:37:37.291Z,13.60
2023-03-24T20:40:08.613Z,13.60
2023-03-24T20:42:35.146Z,13.50
2023-03-24T20:45:01.795Z,13.60
2023-03-24T20:47:28.319Z,13.70
2023-03-24T20:49:54.846Z,13.80
2023-03-24T20:52:22.534Z,13.90
2023-03-24T20:54:49.870Z,14.00
2023-03-24T20:57:16.929Z,14.00
2023-03-24T20:59:43.657Z,14.10
2023-03-24T21:02:11.385Z,14.30
2023-03-24T21:04:37.889Z,14.30
2023-03-24T21:07:04.371Z,14.20
2023-03-24T21:09:32.413Z,14.20
2023-03-24T21:12:00.247Z,14.30
2023-03-24T21:14:27.007Z,14.20
2023-03-24T21:16:53.614Z,14.30
2023-03-24T21:19:20.158Z,14.40
2023-03-24T21:21:48.683Z,14.60
2023-03-24T21:24:16.800Z,14.60
2023-03-24T21:26:45.450Z,14.50
2023-03-24T21:29:16.851Z,14.40
2023-03-24T21:31:43.396Z,14.40
2023-03-24T21:34:10.556Z,14.20
2023-03-24T21:36:37.617Z,14.20
2023-03-24T21:39:06.230Z,14.20
2023-03-24T21:41:32.687Z,14.40
2023-03-24T21:43:59.656Z,14.40
2023-03-24T21:46:27.730Z,14.40
2023-03-24T21:48:59.671Z,14.50
2023-03-24T21:51:33.053Z,14.60
2023-03-24T21:54:03.255Z,14.60
2023-03-24T21:56:32.796Z,14.50
2023-03-24T21:59:00.197Z,14.50
2023-03-24T22:01:27.561Z,14.50
2023-03-24T22:03:54.940Z,14.50
2023-03-24T22:06:21.993Z,14.40
2023-03-24T22:08:49.075Z,14.30
2023-03-24T22:11:17.728Z,14.30
2023-03-24T22:13:45.505Z,14.20
2023-03-24T22:16:12.495Z,14.00
2023-03-24T22:18:39.006Z,13.70
2023-03-24T22:21:09.369Z,13.60
2023-03-24T22:23:39.854Z,13.50
2023-03-24T22:26:11.208Z,13.40
2023-03-24T22:28:38.766Z,13.40
2023-03-24T22:31:09.338Z,13.40
2023-03-24T22:33:36.781Z,13.30
2023-03-24T22:36:04.316Z,13.20
2023-03-24T22:38:31.699Z,13.10
2023-03-24T22:41:04.597Z,13.00
2023-03-24T22:43:31.406Z,12.90
2023-03-24T22:45:58.259Z,12.80
2023-03-24T22:48:24.986Z,12.70
2023-03-24T22:50:53.190Z,12.60
2023-03-24T22:53:19.857Z,12.60
2023-03-24T22:55:46.339Z,12.60
2023-03-24T22:58:13.694Z,12.70
2023-03-24T23:00:42.323Z,12.60
2023-03-24T23:03:09.962Z,12.50
2023-03-24T23:05:44.600Z,12.50
2023-03-24T23:08:13.480Z,12.50
2023-03-24T23:10:42.289Z,12.50
2023-03-24T23:13:09.767Z,12.50
2023-03-24T23:15:37.590Z,12.50
2023-03-24T23:18:04.926Z,12.40
2023-03-24T23:20:31.479Z,12.40
2023-03-24T23:22:58.029Z,12.40
2023-03-24T23:25:25.233Z,12.30
2023-03-24T23:27:51.712Z,12.20
2023-03-24T23:30:18.941Z,12.20
2023-03-24T23:32:45.895Z,12.10
2023-03-24T23:35:12.474Z,12.10
2023-03-24T23:37:38.974Z,12.20
2023-03-24T23:40:11.891Z,12.20
2023-03-24T23:42:40.915Z,12.30
2023-03-24T23:45:10.456Z,12.20
2023-03-24T23:47:37.046Z,12.20
2023-03-24T23:50:05.690Z,12.10
2023-03-24T23:52:33.328Z,12.10
2023-03-24T23:55:01.649Z,12.20
2023-03-24T23:57:29.091Z,12.20
2023-03-24T23:59:55.594Z,12.10
